Terminal Aerodrome Forecast
Issued by NWS Tulsa, OK

Home | Current Version | Previous Version | Text Only | Print | Product List | Glossary On
Versions: 1 2 3 4 5 6 7 8 9 10 11 12 13 14 15 16 17 18
000
FTUS44 KTSA 170716 AAA
TAFTUL
TAF AMD
KTUL 170716Z 1707/1806 27006KT P6SM OVC025
      TEMPO 1708/1712 SCT030
     FM171200 32005KT P6SM OVC025
     FM171500 33006KT P6SM BKN025
     FM171900 31007KT P6SM SCT035 SCT250=

USA.gov is the U.S. government's official web portal to all federal, state and local government web resources and services.